createdAt,value
2022-09-10T00:00:23.389Z,100888.91
2022-09-10T00:02:56.295Z,100883.38
2022-09-10T00:05:30.262Z,100887.20
2022-09-10T00:08:04.707Z,100884.49
2022-09-10T00:10:47.962Z,100891.03
2022-09-10T00:13:23.401Z,100884.80
2022-09-10T00:15:57.186Z,100880.78
2022-09-10T00:18:29.891Z,100879.59
2022-09-10T00:21:05.104Z,100880.70
2022-09-10T00:23:38.834Z,100877.16
2022-09-10T00:26:22.069Z,100879.30
2022-09-10T00:28:58.633Z,100876.06
2022-09-10T00:31:32.916Z,100877.55
2022-09-10T00:34:07.117Z,100876.25
2022-09-10T00:36:41.719Z,100874.92
2022-09-10T00:39:18.655Z,100881.98
2022-09-10T00:41:52.862Z,100884.39
2022-09-10T00:44:46.264Z,100888.72
2022-09-10T00:47:26.669Z,100888.89
2022-09-10T00:50:04.038Z,100890.82
2022-09-10T00:52:39.908Z,100890.72
2022-09-10T00:55:14.103Z,100894.44
2022-09-10T00:57:47.728Z,100891.61
2022-09-10T01:00:20.523Z,100896.22
2022-09-10T01:02:53.926Z,100902.95
2022-09-10T01:05:29.578Z,100907.08
2022-09-10T01:08:03.157Z,100903.44
2022-09-10T01:10:41.694Z,100897.63
2022-09-10T01:13:44.465Z,100896.48
2022-09-10T01:16:27.986Z,100899.41
2022-09-10T01:19:09.261Z,100895.28
2022-09-10T01:22:08.194Z,100890.84
2022-09-10T01:25:01.027Z,100892.25
2022-09-10T01:27:55.009Z,100893.75
2022-09-10T01:30:41.510Z,100898.25
2022-09-10T01:33:38.153Z,100898.75
2022-09-10T01:36:15.573Z,100904.66
2022-09-10T01:38:51.070Z,100901.84
2022-09-10T01:41:26.593Z,100899.42
2022-09-10T01:44:01.755Z,100902.23
2022-09-10T01:46:47.934Z,100903.32
2022-09-10T01:49:39.995Z,100894.19
2022-09-10T01:52:43.720Z,100891.47
2022-09-10T01:55:54.234Z,100888.23
2022-09-10T01:58:45.012Z,100890.55
2022-09-10T02:01:47.697Z,100888.45
2022-09-10T02:04:21.990Z,100888.66
2022-09-10T02:06:54.053Z,100888.25
2022-09-10T02:09:28.069Z,100890.08
2022-09-10T02:12:02.465Z,100889.18
2022-09-10T02:14:58.134Z,100890.97
2022-09-10T02:17:41.900Z,100894.30
2022-09-10T02:20:16.235Z,100889.75
2022-09-10T02:22:53.733Z,100887.83
2022-09-10T02:25:30.321Z,100886.52
2022-09-10T02:28:03.412Z,100886.31
2022-09-10T02:30:37.345Z,100889.73
2022-09-10T02:33:12.296Z,100889.62
2022-09-10T02:35:48.035Z,100889.52
2022-09-10T02:38:21.746Z,100892.33
2022-09-10T02:40:56.276Z,100895.20
2022-09-10T02:43:30.122Z,100895.62
2022-09-10T02:46:08.494Z,100893.20
2022-09-10T02:48:42.270Z,100890.70
2022-09-10T02:51:15.101Z,100886.68
2022-09-10T02:53:48.030Z,100889.66
2022-09-10T02:56:21.202Z,100885.75
2022-09-10T02:58:54.450Z,100889.29
2022-09-10T03:01:28.876Z,100887.05
2022-09-10T03:04:06.935Z,100891.37
2022-09-10T03:06:40.398Z,100887.87
2022-09-10T03:09:13.559Z,100880.42
2022-09-10T03:11:46.867Z,100877.81
2022-09-10T03:14:21.793Z,100880.21
2022-09-10T03:16:55.884Z,100881.52
2022-09-10T03:19:29.495Z,100877.12
2022-09-10T03:22:03.349Z,100887.36
2022-09-10T03:24:37.601Z,100892.48
2022-09-10T03:27:11.470Z,100882.27
2022-09-10T03:29:44.612Z,100887.54
2022-09-10T03:32:18.100Z,100888.23
2022-09-10T03:34:50.849Z,100885.32
2022-09-10T03:37:24.493Z,100884.34
2022-09-10T03:39:58.845Z,100889.09
2022-09-10T03:42:31.885Z,100892.02
2022-09-10T03:45:05.466Z,100890.10
2022-09-10T03:47:39.753Z,100885.30
2022-09-10T03:50:12.388Z,100886.92
2022-09-10T03:52:46.485Z,100896.78
2022-09-10T03:55:19.453Z,100900.09
2022-09-10T03:57:52.445Z,100901.61
2022-09-10T04:00:25.106Z,100895.39
2022-09-10T04:02:58.536Z,100900.03
2022-09-10T04:05:32.629Z,100892.09
2022-09-10T04:08:07.708Z,100895.63
2022-09-10T04:10:42.317Z,100899.55
2022-09-10T04:13:16.460Z,100902.67
2022-09-10T04:15:49.623Z,100907.91
2022-09-10T04:18:22.501Z,100912.64
2022-09-10T04:20:57.811Z,100915.35
2022-09-10T04:23:30.745Z,100915.58
2022-09-10T04:26:20.735Z,100913.98
2022-09-10T04:28:55.090Z,100909.95
2022-09-10T04:31:27.775Z,100908.31
2022-09-10T04:34:02.493Z,100901.88
2022-09-10T04:36:37.271Z,100899.83
2022-09-10T04:39:11.825Z,100900.41
2022-09-10T04:41:45.537Z,100900.30
2022-09-10T04:44:20.435Z,100902.56
2022-09-10T04:46:53.657Z,100895.98
2022-09-10T04:49:27.793Z,100894.17
2022-09-10T04:52:00.575Z,100901.19
2022-09-10T04:54:34.072Z,100895.53
2022-09-10T04:57:09.376Z,100895.68
2022-09-10T04:59:42.934Z,100895.64
2022-09-10T05:02:16.616Z,100899.20
2022-09-10T05:04:50.979Z,100904.10
2022-09-10T05:07:23.718Z,100899.80
2022-09-10T05:09:57.182Z,100907.22
2022-09-10T05:12:31.680Z,100902.89
2022-09-10T05:15:07.663Z,100907.24
2022-09-10T05:17:41.365Z,100900.16
2022-09-10T05:20:15.038Z,100899.12
2022-09-10T05:22:49.422Z,100901.67
2022-09-10T05:25:23.298Z,100890.15
2022-09-10T05:27:56.525Z,100896.64
2022-09-10T05:30:31.512Z,100901.77
2022-09-10T05:33:05.342Z,100904.23
2022-09-10T05:35:39.049Z,100916.95
2022-09-10T05:38:15.101Z,100918.70
2022-09-10T05:40:49.274Z,100915.02
2022-09-10T05:43:22.733Z,100917.58
2022-09-10T05:45:56.331Z,100911.36
2022-09-10T05:48:29.657Z,100912.63
2022-09-10T05:51:03.469Z,100906.89
2022-09-10T05:53:36.340Z,100904.19
2022-09-10T05:56:10.289Z,100908.55
2022-09-10T05:58:45.589Z,100913.71
2022-09-10T06:01:20.075Z,100916.20
2022-09-10T06:03:53.089Z,100912.68
2022-09-10T06:06:28.556Z,100915.61
2022-09-10T06:09:02.863Z,100912.34
2022-09-10T06:11:53.627Z,100909.09
2022-09-10T06:14:28.024Z,100908.20
2022-09-10T06:17:01.406Z,100911.78
2022-09-10T06:19:36.246Z,100906.83
2022-09-10T06:22:11.073Z,100905.27
2022-09-10T06:24:47.407Z,100910.66
2022-09-10T06:27:20.471Z,100908.66
2022-09-10T06:29:53.823Z,100894.47
2022-09-10T06:32:28.574Z,100896.12
2022-09-10T06:35:01.496Z,100894.48
2022-09-10T06:37:36.071Z,100888.50
2022-09-10T06:40:11.301Z,100892.58
2022-09-10T06:42:44.583Z,100895.58
2022-09-10T06:45:20.026Z,100897.92
2022-09-10T06:50:33.864Z,100900.24
2022-09-10T06:53:07.275Z,100901.20
2022-09-10T06:55:40.112Z,100892.20
2022-09-10T06:58:13.074Z,100892.35
2022-09-10T07:00:47.805Z,100889.52
2022-09-10T07:03:23.298Z,100895.81
2022-09-10T07:05:57.133Z,100897.41
2022-09-10T07:08:31.650Z,100902.22
2022-09-10T07:11:08.263Z,100891.61
2022-09-10T07:13:42.147Z,100886.33
2022-09-10T07:16:16.866Z,100884.31
2022-09-10T07:18:57.820Z,100881.37
2022-09-10T07:21:32.969Z,100882.83
2022-09-10T07:24:07.856Z,100877.33
2022-09-10T07:26:41.970Z,100883.19
2022-09-10T07:29:15.778Z,100874.67
2022-09-10T07:31:48.906Z,100873.00
2022-09-10T07:34:25.625Z,100876.53
2022-09-10T07:36:58.628Z,100868.98
2022-09-10T07:39:31.656Z,100872.61
2022-09-10T07:42:04.719Z,100878.84
2022-09-10T07:44:39.137Z,100880.92
2022-09-10T07:47:12.124Z,100877.21
2022-09-10T07:49:45.294Z,100881.41
2022-09-10T07:52:18.977Z,100881.66
2022-09-10T07:54:53.856Z,100879.84
2022-09-10T07:57:27.010Z,100864.20
2022-09-10T08:00:01.114Z,100865.02
2022-09-10T08:02:36.267Z,100863.61
2022-09-10T08:05:10.924Z,100863.70
2022-09-10T08:07:44.200Z,100862.23
2022-09-10T08:10:17.476Z,100865.89
2022-09-10T08:12:51.026Z,100863.19
2022-09-10T08:15:24.452Z,100849.37
2022-09-10T08:18:00.861Z,100849.37
2022-09-10T08:20:34.256Z,100854.64
2022-09-10T08:23:08.380Z,100848.06
2022-09-10T08:25:42.058Z,100850.17
2022-09-10T08:28:15.733Z,100843.85
2022-09-10T08:31:04.697Z,100839.58
2022-09-10T08:33:41.000Z,100848.88
2022-09-10T08:36:15.285Z,100843.30
2022-09-10T08:38:50.531Z,100832.28
2022-09-10T08:41:40.659Z,100830.22
2022-09-10T08:44:29.058Z,100836.16
2022-09-10T08:47:20.564Z,100828.41
2022-09-10T08:49:58.828Z,100817.14
2022-09-10T08:52:37.743Z,100830.07
2022-09-10T08:55:25.147Z,100813.12
2022-09-10T08:58:07.193Z,100817.70
2022-09-10T09:00:43.237Z,100819.13
2022-09-10T09:03:42.282Z,100807.84
2022-09-10T09:06:25.687Z,100812.80
2022-09-10T09:09:02.110Z,100812.91
2022-09-10T09:11:44.340Z,100801.23
2022-09-10T09:14:43.043Z,100795.29
2022-09-10T09:17:40.118Z,100792.56
2022-09-10T09:20:41.746Z,100796.70
2022-09-10T09:23:23.855Z,100795.08
2022-09-10T09:26:02.598Z,100796.23
2022-09-10T09:29:10.923Z,100783.39
2022-09-10T09:31:49.607Z,100791.63
2022-09-10T09:34:51.112Z,100783.02
2022-09-10T09:37:31.449Z,100786.61
2022-09-10T09:40:23.738Z,100785.23
2022-09-10T09:43:04.397Z,100790.66
2022-09-10T09:45:47.514Z,100783.66
2022-09-10T09:48:22.754Z,100786.75
2022-09-10T09:51:01.932Z,100782.83
2022-09-10T09:53:35.797Z,100777.54
2022-09-10T09:56:15.908Z,100787.88
2022-09-10T09:58:51.196Z,100788.95
2022-09-10T10:01:26.145Z,100781.28
2022-09-10T10:04:03.409Z,100779.27
2022-09-10T10:06:47.898Z,100779.41
2022-09-10T10:09:24.180Z,100774.59
2022-09-10T10:12:00.080Z,100765.77
2022-09-10T10:14:43.386Z,100763.27
2022-09-10T10:17:33.073Z,100767.54
2022-09-10T10:20:14.026Z,100763.38
2022-09-10T10:22:49.961Z,100761.44
2022-09-10T10:25:38.973Z,100755.96
2022-09-10T10:28:24.771Z,100764.65
2022-09-10T10:31:00.963Z,100757.70
2022-09-10T10:33:35.608Z,100747.19
2022-09-10T10:36:21.931Z,100748.03
2022-09-10T10:39:11.022Z,100733.41
2022-09-10T10:42:15.822Z,100729.31
2022-09-10T10:45:05.644Z,100731.47
2022-09-10T10:47:49.821Z,100726.66
2022-09-10T10:50:39.390Z,100725.89
2022-09-10T10:53:49.081Z,100718.83
2022-09-10T10:56:48.347Z,100711.39
2022-09-10T10:59:53.575Z,100702.39
2022-09-10T11:02:50.734Z,100705.31
2022-09-10T11:05:45.365Z,100699.73
2022-09-10T11:08:39.215Z,100696.67
2022-09-10T11:11:19.831Z,100687.80
2022-09-10T11:14:27.634Z,100682.60
2022-09-10T11:17:05.882Z,100683.67
2022-09-10T11:19:53.324Z,100683.92
2022-09-10T11:22:27.246Z,100678.36
2022-09-10T11:25:19.594Z,100678.91
2022-09-10T11:28:12.533Z,100672.75
2022-09-10T11:30:50.892Z,100665.78
2022-09-10T11:33:49.609Z,100659.14
2022-09-10T11:36:35.967Z,100660.47
2022-09-10T11:39:21.874Z,100653.87
2022-09-10T11:41:55.963Z,100656.19
2022-09-10T11:44:47.800Z,100643.39
2022-09-10T11:47:28.017Z,100643.02
2022-09-10T11:50:07.389Z,100648.32
2022-09-10T11:52:40.644Z,100645.30
2022-09-10T11:55:18.654Z,100632.97
2022-09-10T11:58:01.324Z,100632.66
2022-09-10T12:00:37.931Z,100622.67
2022-09-10T12:03:33.781Z,100617.90
2022-09-10T12:06:27.047Z,100622.83
2022-09-10T12:09:13.613Z,100623.71
2022-09-10T12:12:09.886Z,100623.66
2022-09-10T12:14:43.405Z,100621.84
2022-09-10T12:17:27.614Z,100624.06
2022-09-10T12:20:01.600Z,100619.22
2022-09-10T12:22:41.628Z,100618.81
2022-09-10T12:25:28.297Z,100617.52
2022-09-10T12:28:03.178Z,100611.34
2022-09-10T12:30:41.735Z,100618.52
2022-09-10T12:33:24.238Z,100612.77
2022-09-10T12:35:58.191Z,100615.45
2022-09-10T12:39:08.977Z,100607.96
2022-09-10T12:41:47.134Z,100611.53
2022-09-10T12:44:39.359Z,100600.08
2022-09-10T12:47:28.806Z,100602.80
2022-09-10T12:50:08.987Z,100599.67
2022-09-10T12:52:55.025Z,100597.04
2022-09-10T12:56:02.497Z,100586.36
2022-09-10T12:58:46.641Z,100584.53
2022-09-10T13:01:49.633Z,100584.85
2022-09-10T13:04:39.141Z,100583.49
2022-09-10T13:07:40.029Z,100578.50
2022-09-10T13:10:29.191Z,100570.51
2022-09-10T13:13:05.845Z,100572.66
2022-09-10T13:15:40.335Z,100574.81
2022-09-10T13:18:29.354Z,100582.27
2022-09-10T13:21:22.233Z,100572.03
2022-09-10T13:23:59.156Z,100571.53
2022-09-10T13:26:52.700Z,100572.39
2022-09-10T13:29:40.480Z,100569.67
2022-09-10T13:32:33.085Z,100568.75
2022-09-10T13:35:31.554Z,100568.31
2022-09-10T13:38:23.808Z,100570.52
2022-09-10T13:41:13.579Z,100566.53
2022-09-10T13:43:51.293Z,100558.16
2022-09-10T13:46:37.098Z,100555.92
2022-09-10T13:49:47.655Z,100554.09
2022-09-10T13:52:25.287Z,100555.77
2022-09-10T13:54:59.597Z,100552.98
2022-09-10T13:57:44.330Z,100548.50
2022-09-10T14:00:26.021Z,100543.56
2022-09-10T14:03:02.019Z,100544.80
2022-09-10T14:05:39.541Z,100547.79
2022-09-10T14:08:41.549Z,100535.82
2022-09-10T14:11:18.675Z,100538.00
2022-09-10T14:13:59.080Z,100533.95
2022-09-10T14:16:36.733Z,100540.55
2022-09-10T14:19:19.810Z,100540.99
2022-09-10T14:21:53.666Z,100547.56
2022-09-10T14:24:33.818Z,100546.64
2022-09-10T14:27:27.951Z,100551.47
2022-09-10T14:30:30.222Z,100548.34
2022-09-10T14:33:36.885Z,100544.30
2022-09-10T14:36:31.754Z,100540.73
2022-09-10T14:39:22.630Z,100540.22
2022-09-10T14:42:30.099Z,100536.64
2022-09-10T14:45:03.725Z,100540.11
2022-09-10T14:47:38.622Z,100536.55
2022-09-10T14:50:34.907Z,100542.73
2022-09-10T14:53:08.089Z,100538.75
2022-09-10T14:55:41.857Z,100545.86
2022-09-10T14:58:14.931Z,100544.98
2022-09-10T15:00:48.249Z,100548.95
2022-09-10T15:03:21.270Z,100537.87
2022-09-10T15:05:54.113Z,100539.09
2022-09-10T15:08:27.184Z,100539.83
2022-09-10T15:11:00.836Z,100540.98
2022-09-10T15:13:35.030Z,100544.81
2022-09-10T15:16:07.735Z,100536.64
2022-09-10T15:18:41.833Z,100530.64
2022-09-10T15:21:16.793Z,100531.70
2022-09-10T15:23:49.510Z,100527.94
2022-09-10T15:26:22.458Z,100518.80
2022-09-10T15:28:55.610Z,100523.45
2022-09-10T15:31:32.469Z,100521.89
2022-09-10T15:34:03.794Z,100522.98
2022-09-10T15:36:39.071Z,100525.78
2022-09-10T15:39:13.950Z,100523.77
2022-09-10T15:41:47.474Z,100527.48
2022-09-10T15:44:20.303Z,100521.93
2022-09-10T15:46:53.404Z,100522.15
2022-09-10T15:49:26.980Z,100520.16
2022-09-10T15:52:00.576Z,100520.78
2022-09-10T15:54:34.289Z,100517.47
2022-09-10T15:57:07.194Z,100522.98
2022-09-10T15:59:41.463Z,100520.14
2022-09-10T16:02:14.692Z,100515.95
2022-09-10T16:04:48.764Z,100521.50
2022-09-10T16:07:22.060Z,100512.00
2022-09-10T16:09:55.478Z,100517.05
2022-09-10T16:12:28.503Z,100521.70
2022-09-10T16:15:01.691Z,100526.39
2022-09-10T16:17:34.909Z,100523.50
2022-09-10T16:20:09.164Z,100521.50
2022-09-10T16:22:41.898Z,100530.05
2022-09-10T16:25:15.350Z,100536.80
2022-09-10T16:27:48.570Z,100529.98
2022-09-10T16:30:21.486Z,100525.28
2022-09-10T16:32:55.752Z,100524.19
2022-09-10T16:35:28.800Z,100526.62
2022-09-10T16:38:01.771Z,100525.47
2022-09-10T16:40:34.957Z,100529.22
2022-09-10T16:43:07.980Z,100529.89
2022-09-10T16:45:42.695Z,100540.23
2022-09-10T16:48:16.451Z,100541.27
2022-09-10T16:50:49.345Z,100541.48
2022-09-10T16:53:22.438Z,100542.08
2022-09-10T16:56:01.510Z,100548.44
2022-09-10T16:58:36.080Z,100547.73
2022-09-10T17:01:10.796Z,100547.38
2022-09-10T17:03:46.767Z,100548.30
2022-09-10T17:06:24.766Z,100547.45
2022-09-10T17:09:00.822Z,100548.36
2022-09-10T17:11:35.849Z,100548.43
2022-09-10T17:14:11.726Z,100552.52
2022-09-10T17:16:45.264Z,100552.64
2022-09-10T17:19:26.105Z,100554.10
2022-09-10T17:21:59.723Z,100556.48
2022-09-10T17:24:32.638Z,100554.89
2022-09-10T17:27:05.684Z,100556.36
2022-09-10T17:29:39.406Z,100552.52
2022-09-10T17:32:12.591Z,100547.73
2022-09-10T17:34:47.943Z,100548.23
2022-09-10T17:37:21.164Z,100541.82
2022-09-10T17:39:55.416Z,100539.75
2022-09-10T17:42:28.775Z,100528.07
2022-09-10T17:45:02.518Z,100527.78
2022-09-10T17:47:35.402Z,100530.64
2022-09-10T17:50:09.666Z,100529.55
2022-09-10T17:52:44.624Z,100526.72
2022-09-10T17:55:19.016Z,100524.28
2022-09-10T17:57:51.747Z,100529.44
2022-09-10T18:00:24.582Z,100529.70
2022-09-10T18:02:57.980Z,100526.88
2022-09-10T18:05:31.001Z,100520.59
2022-09-10T18:08:04.610Z,100524.33
2022-09-10T18:10:38.183Z,100523.77
2022-09-10T18:13:11.073Z,100522.67
2022-09-10T18:15:46.298Z,100519.45
2022-09-10T18:18:19.760Z,100521.94
2022-09-10T18:20:52.873Z,100526.13
2022-09-10T18:23:26.243Z,100517.64
2022-09-10T18:26:00.405Z,100525.32
2022-09-10T18:28:33.755Z,100523.80
2022-09-10T18:31:07.020Z,100521.84
2022-09-10T18:33:41.747Z,100520.39
2022-09-10T18:36:19.603Z,100512.30
2022-09-10T18:38:53.424Z,100516.95
2022-09-10T18:41:32.189Z,100516.38
2022-09-10T18:44:08.211Z,100518.48
2022-09-10T18:46:41.094Z,100516.95
2022-09-10T18:49:21.382Z,100505.80
2022-09-10T18:51:57.585Z,100497.28
2022-09-10T18:54:30.738Z,100494.61
2022-09-10T18:57:03.930Z,100490.53
2022-09-10T18:59:38.641Z,100490.77
2022-09-10T19:02:13.311Z,100484.92
2022-09-10T19:05:09.716Z,100478.03
2022-09-10T19:07:22.075Z,100476.42
2022-09-10T19:09:54.801Z,100480.57
2022-09-10T19:12:28.876Z,100468.54
2022-09-10T19:15:01.887Z,100462.99
2022-09-10T19:17:35.080Z,100462.00
2022-09-10T19:20:09.979Z,100458.27
2022-09-10T19:22:44.107Z,100462.05
2022-09-10T19:25:17.074Z,100456.58
2022-09-10T19:27:50.555Z,100451.61
2022-09-10T19:30:23.378Z,100461.53
2022-09-10T19:32:56.552Z,100457.87
2022-09-10T19:35:30.067Z,100467.83
2022-09-10T19:38:21.061Z,100471.94
2022-09-10T19:40:38.139Z,100477.87
2022-09-10T19:43:12.820Z,100474.59
2022-09-10T19:45:45.706Z,100475.76
2022-09-10T19:48:20.273Z,100481.27
2022-09-10T19:50:53.497Z,100482.02
2022-09-10T19:53:27.052Z,100483.52
2022-09-10T19:56:11.865Z,100488.61
2022-09-10T19:58:46.526Z,100492.31
2022-09-10T20:01:23.979Z,100493.46
2022-09-10T20:03:57.360Z,100488.14
2022-09-10T20:06:31.400Z,100490.69
2022-09-10T20:09:06.585Z,100486.20
2022-09-10T20:11:39.981Z,100485.55
2022-09-10T20:14:15.760Z,100486.20
2022-09-10T20:16:48.561Z,100486.97
2022-09-10T20:19:22.377Z,100483.69
2022-09-10T20:21:55.327Z,100481.33
2022-09-10T20:24:28.612Z,100479.12
2022-09-10T20:27:01.601Z,100470.84
2022-09-10T20:29:34.770Z,100478.70
2022-09-10T20:32:08.729Z,100470.42
2022-09-10T20:34:41.620Z,100467.48
2022-09-10T20:37:14.502Z,100461.32
2022-09-10T20:39:48.730Z,100455.27
2022-09-10T20:42:22.300Z,100451.96
2022-09-10T20:44:57.050Z,100450.41
2022-09-10T20:47:31.621Z,100449.65
2022-09-10T20:50:04.529Z,100449.34
2022-09-10T20:52:38.500Z,100451.46
2022-09-10T20:55:12.134Z,100441.86
2022-09-10T20:57:45.492Z,100439.23
2022-09-10T21:00:18.585Z,100435.73
2022-09-10T21:02:51.863Z,100432.30
2022-09-10T21:05:24.624Z,100439.31
2022-09-10T21:07:57.934Z,100438.92
2022-09-10T21:10:30.853Z,100430.72
2022-09-10T21:13:05.044Z,100432.18
2022-09-10T21:15:38.328Z,100430.45
2022-09-10T21:18:11.464Z,100433.99
2022-09-10T21:20:44.337Z,100426.13
2022-09-10T21:23:18.168Z,100431.02
2022-09-10T21:25:53.697Z,100430.67
2022-09-10T21:28:27.496Z,100435.50
2022-09-10T21:31:05.716Z,100431.64
2022-09-10T21:33:39.249Z,100420.26
2022-09-10T21:36:18.927Z,100417.72
2022-09-10T21:38:57.824Z,100418.29
2022-09-10T21:41:37.942Z,100418.36
2022-09-10T21:44:17.009Z,100409.57
2022-09-10T21:46:51.693Z,100411.80
2022-09-10T21:49:24.487Z,100399.08
2022-09-10T21:51:57.785Z,100400.39
2022-09-10T21:54:30.694Z,100392.53
2022-09-10T21:57:04.485Z,100395.30
2022-09-10T21:59:38.031Z,100394.48
2022-09-10T22:02:11.723Z,100397.61
2022-09-10T22:04:44.571Z,100399.31
2022-09-10T22:07:17.642Z,100398.00
2022-09-10T22:09:51.038Z,100392.83
2022-09-10T22:12:25.352Z,100395.38
2022-09-10T22:14:58.478Z,100391.05
2022-09-10T22:17:31.304Z,100391.86
2022-09-10T22:20:05.662Z,100383.57
2022-09-10T22:22:39.668Z,100382.83
2022-09-10T22:25:12.826Z,100378.08
2022-09-10T22:27:45.538Z,100377.66
2022-09-10T22:30:18.927Z,100378.39
2022-09-10T22:32:52.102Z,100380.56
2022-09-10T22:35:31.329Z,100380.56
2022-09-10T22:38:04.409Z,100380.06
2022-09-10T22:40:38.169Z,100379.56
2022-09-10T22:43:11.002Z,100380.33
2022-09-10T22:45:43.918Z,100372.39
2022-09-10T22:48:16.963Z,100360.09
2022-09-10T22:50:50.245Z,100365.27
2022-09-10T22:53:22.958Z,100365.19
2022-09-10T22:55:56.323Z,100356.82
2022-09-10T22:58:29.515Z,100355.44
2022-09-10T23:01:17.187Z,100351.84
2022-09-10T23:03:50.071Z,100348.69
2022-09-10T23:06:25.076Z,100344.53
2022-09-10T23:09:11.828Z,100337.75
2022-09-10T23:11:46.361Z,100331.86
2022-09-10T23:14:22.243Z,100328.27
2022-09-10T23:16:55.731Z,100331.91
2022-09-10T23:19:30.052Z,100336.84
2022-09-10T23:22:04.087Z,100344.55
2022-09-10T23:24:36.835Z,100339.23
2022-09-10T23:27:09.845Z,100343.52
2022-09-10T23:29:43.231Z,100343.36
2022-09-10T23:32:16.197Z,100337.20
2022-09-10T23:34:50.747Z,100338.51
2022-09-10T23:37:25.142Z,100334.84
2022-09-10T23:39:58.081Z,100330.45
2022-09-10T23:42:31.507Z,100324.78
2022-09-10T23:45:04.288Z,100316.11
2022-09-10T23:47:37.994Z,100310.38
2022-09-10T23:50:11.235Z,100305.55
2022-09-10T23:52:44.455Z,100322.90
2022-09-10T23:55:17.313Z,100319.20
2022-09-10T23:57:51.080Z,100325.52
